Time,TemperatureF,DewpointF,PressureIn,WindDirection,WindDirectionDegrees,WindSpeedMPH,WindSpeedGustMPH,Humidity,HourlyPrecipIn,Conditions,Clouds,dailyrainin,SoftwareType,DateUTC
2013-02-21 00:00:00,24.8,15.4,21.02,East,90,0.0,0.0,67,0.00,,,0.00,WUHU216HW,2013-02-21 07:00:00,
2013-02-21 00:05:00,24.8,15.4,21.02,East,90,0.0,0.0,67,0.00,,,0.00,WUHU216HW,2013-02-21 07:05:00,
2013-02-21 00:10:00,24.8,15.4,21.02,East,90,0.0,0.0,67,0.00,,,0.00,WUHU216HW,2013-02-21 07:10:00,
2013-02-21 00:30:00,24.3,14.9,21.02,East,90,0.0,0.0,67,0.00,,,0.00,WUHU216HW,2013-02-21 07:30:00,
2013-02-21 00:35:00,24.3,14.9,21.02,East,90,0.0,0.0,67,0.00,,,0.00,WUHU216HW,2013-02-21 07:35:00,
2013-02-21 00:40:00,24.3,14.9,21.02,East,90,0.0,0.0,67,0.00,,,0.00,WUHU216HW,2013-02-21 07:40:00,
2013-02-21 01:00:00,23.9,14.5,21.02,East,90,0.0,0.0,67,0.00,,,0.00,WUHU216HW,2013-02-21 08:00:00,
2013-02-21 01:05:00,23.8,14.3,21.02,East,90,0.0,0.0,67,0.00,,,0.00,WUHU216HW,2013-02-21 08:05:00,
2013-02-21 01:10:00,23.8,14.3,21.02,East,90,0.0,0.0,67,0.00,,,0.00,WUHU216HW,2013-02-21 08:10:00,
2013-02-21 01:30:00,23.6,14.6,21.02,East,90,0.0,0.0,68,0.00,,,0.00,WUHU216HW,2013-02-21 08:30:00,
2013-02-21 01:35:00,23.6,14.6,21.02,East,90,0.0,0.0,68,0.00,,,0.00,WUHU216HW,2013-02-21 08:35:00,
2013-02-21 01:40:00,23.6,14.6,21.02,East,90,0.0,0.0,68,0.00,,,0.00,WUHU216HW,2013-02-21 08:40:00,
2013-02-21 02:00:00,23.4,14.8,21.02,East,90,0.0,0.0,69,0.00,,,0.00,WUHU216HW,2013-02-21 09:00:00,
2013-02-21 02:05:00,23.4,14.8,21.02,East,90,0.0,0.0,69,0.00,,,0.00,WUHU216HW,2013-02-21 09:05:00,
2013-02-21 02:10:00,23.4,14.8,21.02,East,90,0.0,0.0,69,0.00,,,0.00,WUHU216HW,2013-02-21 09:10:00,
2013-02-21 02:30:00,23.2,14.2,21.02,East,90,0.0,0.0,68,0.00,,,0.00,WUHU216HW,2013-02-21 09:30:00,
2013-02-21 02:35:00,23.2,14.2,21.02,East,90,0.0,0.0,68,0.00,,,0.00,WUHU216HW,2013-02-21 09:35:00,
2013-02-21 02:40:00,23.2,14.2,21.02,East,90,0.0,0.0,68,0.00,,,0.00,WUHU216HW,2013-02-21 09:40:00,
2013-02-21 03:00:00,23.2,14.6,21.02,ESE,113,0.0,0.0,69,0.00,,,0.00,WUHU216HW,2013-02-21 10:00:00,
2013-02-21 03:05:00,23.2,14.6,21.02,ESE,113,0.0,0.0,69,0.00,,,0.00,WUHU216HW,2013-02-21 10:05:00,
2013-02-21 03:10:00,23.2,14.6,21.02,ESE,113,0.0,0.0,69,0.00,,,0.00,WUHU216HW,2013-02-21 10:10:00,
2013-02-21 03:30:00,22.9,14.2,21.02,ESE,113,0.0,0.0,69,0.00,,,0.00,WUHU216HW,2013-02-21 10:30:00,
2013-02-21 03:35:00,22.9,14.2,21.02,ESE,113,0.0,0.0,69,0.00,,,0.00,WUHU216HW,2013-02-21 10:35:00,
2013-02-21 03:40:00,22.9,14.2,21.02,ESE,113,0.0,0.0,69,0.00,,,0.00,WUHU216HW,2013-02-21 10:40:00,
2013-02-21 04:00:00,22.7,14.0,21.03,ESE,113,0.0,0.0,69,0.00,,,0.00,WUHU216HW,2013-02-21 11:00:00,
2013-02-21 04:05:00,22.7,14.0,21.03,ESE,113,0.0,0.0,69,0.00,,,0.00,WUHU216HW,2013-02-21 11:05:00,
2013-02-21 04:10:00,22.7,14.0,21.03,ESE,113,0.0,0.0,69,0.00,,,0.00,WUHU216HW,2013-02-21 11:10:00,
2013-02-21 04:30:00,22.3,13.7,21.03,WSW,248,0.0,0.0,69,0.00,,,0.00,WUHU216HW,2013-02-21 11:30:00,
2013-02-21 04:35:00,22.3,13.7,21.03,WSW,248,0.0,0.0,69,0.00,,,0.00,WUHU216HW,2013-02-21 11:35:00,
2013-02-21 04:40:00,22.3,13.7,21.03,WSW,248,0.0,0.0,69,0.00,,,0.00,WUHU216HW,2013-02-21 11:40:00,
2013-02-21 05:00:00,22.0,13.3,21.04,WSW,248,0.0,0.0,69,0.00,,,0.00,WUHU216HW,2013-02-21 12:00:00,
2013-02-21 05:05:00,22.0,13.3,21.04,WSW,248,0.0,0.0,69,0.00,,,0.00,WUHU216HW,2013-02-21 12:05:00,
2013-02-21 05:10:00,22.0,13.3,21.04,WSW,248,0.0,0.0,69,0.00,,,0.00,WUHU216HW,2013-02-21 12:10:00,
2013-02-21 05:30:00,22.0,13.7,21.04,WSW,248,0.0,0.0,70,0.00,,,0.00,WUHU216HW,2013-02-21 12:30:00,
2013-02-21 05:35:00,22.0,13.3,21.04,WSW,248,0.0,0.0,69,0.00,,,0.00,WUHU216HW,2013-02-21 12:35:00,
2013-02-21 05:40:00,22.0,13.3,21.04,WSW,248,0.0,0.0,69,0.00,,,0.00,WUHU216HW,2013-02-21 12:40:00,
2013-02-21 06:00:00,21.2,12.6,21.04,WSW,248,0.0,0.0,69,0.00,,,0.00,WUHU216HW,2013-02-21 13:00:00,
2013-02-21 06:05:00,21.1,12.4,21.04,WSW,248,0.0,0.0,69,0.00,,,0.00,WUHU216HW,2013-02-21 13:05:00,
2013-02-21 06:10:00,21.1,12.4,21.04,WSW,248,0.0,0.0,69,0.00,,,0.00,WUHU216HW,2013-02-21 13:10:00,
2013-02-21 06:30:00,21.1,12.4,21.05,WSW,248,0.0,0.0,69,0.00,,,0.00,WUHU216HW,2013-02-21 13:30:00,
2013-02-21 06:35:00,21.1,12.4,21.05,WSW,248,0.0,0.0,69,0.00,,,0.00,WUHU216HW,2013-02-21 13:35:00,
2013-02-21 06:40:00,21.1,12.4,21.05,WSW,248,0.0,0.0,69,0.00,,,0.00,WUHU216HW,2013-02-21 13:40:00,
2013-02-21 07:00:00,20.9,12.2,21.06,WSW,248,0.0,0.0,69,0.00,,,0.00,WUHU216HW,2013-02-21 14:00:00,
2013-02-21 07:05:00,20.9,12.2,21.06,WSW,248,0.0,0.0,69,0.00,,,0.00,WUHU216HW,2013-02-21 14:05:00,
2013-02-21 07:10:00,20.9,12.2,21.06,WSW,248,0.0,0.0,69,0.00,,,0.00,WUHU216HW,2013-02-21 14:10:00,
2013-02-21 07:30:00,21.6,13.0,21.07,WSW,248,0.0,0.0,69,0.00,,,0.00,WUHU216HW,2013-02-21 14:30:00,
2013-02-21 07:35:00,21.6,13.0,21.07,WSW,248,0.0,0.0,69,0.00,,,0.00,WUHU216HW,2013-02-21 14:35:00,
2013-02-21 07:40:00,21.6,13.0,21.07,WSW,248,0.0,0.0,69,0.00,,,0.00,WUHU216HW,2013-02-21 14:40:00,
2013-02-21 08:00:00,22.9,14.2,21.08,East,90,0.0,0.0,69,0.00,,,0.00,WUHU216HW,2013-02-21 15:00:00,
2013-02-21 08:05:00,22.9,14.2,21.08,East,90,0.0,0.0,69,0.00,,,0.00,WUHU216HW,2013-02-21 15:05:00,
2013-02-21 08:10:00,22.9,14.2,21.08,East,90,0.0,0.0,69,0.00,,,0.00,WUHU216HW,2013-02-21 15:10:00,
2013-02-21 08:30:00,24.8,16.0,21.09,ESE,113,0.0,0.0,69,0.00,,,0.00,WUHU216HW,2013-02-21 15:30:00,
2013-02-21 08:35:00,24.8,16.0,21.09,ESE,113,0.0,0.0,69,0.00,,,0.00,WUHU216HW,2013-02-21 15:35:00,
2013-02-21 08:40:00,24.8,16.0,21.09,ESE,113,0.0,0.0,69,0.00,,,0.00,WUHU216HW,2013-02-21 15:40:00,
2013-02-21 09:00:00,25.9,16.0,21.09,East,90,0.0,0.0,66,0.00,,,0.00,WUHU216HW,2013-02-21 16:00:00,
2013-02-21 09:05:00,25.9,16.0,21.09,ESE,113,0.0,0.2,66,0.00,,,0.00,WUHU216HW,2013-02-21 16:05:00,
2013-02-21 09:10:00,25.9,16.0,21.09,ESE,113,0.0,0.2,66,0.00,,,0.00,WUHU216HW,2013-02-21 16:10:00,
2013-02-21 09:30:00,25.6,15.4,21.09,WNW,293,1.3,1.3,65,0.00,,,0.00,WUHU216HW,2013-02-21 16:30:00,
2013-02-21 09:35:00,25.4,15.2,21.09,West,270,0.4,1.3,65,0.00,,,0.00,WUHU216HW,2013-02-21 16:35:00,
2013-02-21 09:40:00,25.4,15.2,21.09,West,270,0.4,1.3,65,0.00,,,0.00,WUHU216HW,2013-02-21 16:40:00,
2013-02-21 10:00:00,24.8,14.3,21.10,WSW,248,3.4,3.4,64,0.00,,,0.00,WUHU216HW,2013-02-21 17:00:00,
2013-02-21 10:05:00,24.8,14.3,21.10,ENE,68,3.8,3.8,64,0.00,,,0.00,WUHU216HW,2013-02-21 17:05:00,
2013-02-21 10:10:00,24.8,14.3,21.10,ENE,68,3.8,3.8,64,0.00,,,0.00,WUHU216HW,2013-02-21 17:10:00,
2013-02-21 10:30:00,24.8,14.3,21.10,ESE,113,4.9,4.9,64,0.00,,,0.00,WUHU216HW,2013-02-21 17:30:00,
2013-02-21 10:35:00,24.8,14.3,21.10,NE,45,1.8,4.9,64,0.00,,,0.00,WUHU216HW,2013-02-21 17:35:00,
2013-02-21 10:40:00,24.8,14.3,21.10,NE,45,1.8,4.9,64,0.00,,,0.00,WUHU216HW,2013-02-21 17:40:00,
2013-02-21 11:00:00,25.0,14.1,21.10,NNW,338,3.4,3.4,63,0.00,,,0.00,WUHU216HW,2013-02-21 18:00:00,
2013-02-21 11:05:00,25.0,13.8,21.10,NNW,338,3.4,3.4,62,0.00,,,0.00,WUHU216HW,2013-02-21 18:05:00,
2013-02-21 11:10:00,25.0,13.8,21.10,NNW,338,3.4,3.4,62,0.00,,,0.00,WUHU216HW,2013-02-21 18:10:00,
2013-02-21 11:30:00,25.6,14.7,21.11,NE,45,1.8,1.8,63,0.00,,,0.00,WUHU216HW,2013-02-21 18:30:00,
2013-02-21 11:35:00,25.6,14.7,21.11,WNW,293,1.6,1.8,63,0.00,,,0.00,WUHU216HW,2013-02-21 18:35:00,
2013-02-21 11:40:00,25.6,14.7,21.11,WNW,293,1.6,1.6,63,0.00,,,0.00,WUHU216HW,2013-02-21 18:40:00,
2013-02-21 12:00:00,24.7,14.1,21.11,West,270,2.7,2.7,64,0.00,,,0.00,WUHU216HW,2013-02-21 19:00:00,
2013-02-21 12:05:00,24.7,13.8,21.11,ENE,68,3.6,5.4,63,0.00,,,0.00,WUHU216HW,2013-02-21 19:05:00,
2013-02-21 12:10:00,24.7,13.8,21.11,ENE,68,3.6,5.4,63,0.00,,,0.00,WUHU216HW,2013-02-21 19:10:00,
2013-02-21 12:30:00,24.7,14.5,21.10,NW,315,2.5,2.5,65,0.00,,,0.00,WUHU216HW,2013-02-21 19:30:00,
2013-02-21 12:35:00,24.5,14.0,21.10,North,0,3.4,3.8,64,0.00,,,0.00,WUHU216HW,2013-02-21 19:35:00,
2013-02-21 12:40:00,24.5,14.0,21.10,North,0,3.4,3.8,64,0.00,,,0.00,WUHU216HW,2013-02-21 19:40:00,
2013-02-21 13:00:00,23.8,14.3,21.10,NNW,338,1.1,1.1,67,0.00,,,0.00,WUHU216HW,2013-02-21 20:00:00,
2013-02-21 13:05:00,23.8,14.3,21.10,East,90,1.1,1.3,67,0.00,,,0.00,WUHU216HW,2013-02-21 20:05:00,
2013-02-21 13:10:00,23.8,14.3,21.10,East,90,1.1,1.3,67,0.00,,,0.00,WUHU216HW,2013-02-21 20:10:00,
2013-02-21 13:30:00,25.6,15.7,21.10,NNW,338,1.6,1.6,66,0.00,,,0.00,WUHU216HW,2013-02-21 20:30:00,
2013-02-21 13:35:00,25.6,15.7,21.10,NNW,338,1.6,1.6,66,0.00,,,0.00,WUHU216HW,2013-02-21 20:35:00,
2013-02-21 13:40:00,25.6,15.7,21.10,NNW,338,1.6,1.6,66,0.00,,,0.00,WUHU216HW,2013-02-21 20:40:00,
2013-02-21 14:00:00,24.8,15.7,21.10,WNW,293,2.5,2.5,68,0.00,,,0.00,WUHU216HW,2013-02-21 21:00:00,
2013-02-21 14:05:00,24.8,15.7,21.10,WNW,293,1.3,2.5,68,0.00,,,0.00,WUHU216HW,2013-02-21 21:05:00,
2013-02-21 14:10:00,24.8,15.7,21.10,WNW,293,1.3,1.3,68,0.00,,,0.00,WUHU216HW,2013-02-21 21:10:00,
2013-02-21 14:30:00,24.8,16.0,21.11,ENE,68,0.9,0.9,69,0.00,,,0.00,WUHU216HW,2013-02-21 21:30:00,
2013-02-21 14:35:00,24.8,16.0,21.11,NE,45,1.1,2.9,69,0.00,,,0.00,WUHU216HW,2013-02-21 21:35:00,
2013-02-21 14:40:00,24.8,16.0,21.11,NE,45,1.1,2.9,69,0.00,,,0.00,WUHU216HW,2013-02-21 21:40:00,
2013-02-21 15:00:00,25.0,16.2,21.12,East,90,2.7,2.7,69,0.00,,,0.00,WUHU216HW,2013-02-21 22:00:00,
2013-02-21 15:05:00,25.0,16.2,21.12,West,270,3.4,3.4,69,0.00,,,0.00,WUHU216HW,2013-02-21 22:05:00,
2013-02-21 15:10:00,25.0,16.2,21.12,West,270,3.4,3.4,69,0.00,,,0.00,WUHU216HW,2013-02-21 22:10:00,
2013-02-21 15:30:00,25.0,16.6,21.12,ENE,68,0.0,0.0,70,0.00,,,0.00,WUHU216HW,2013-02-21 22:30:00,
2013-02-21 15:31:00,25.0,16.6,21.12,ENE,68,0.0,0.0,70,0.00,,,0.00,WUHU216HW,2013-02-21 22:31:00,
2013-02-21 15:36:00,25.0,16.6,21.12,ENE,68,0.0,0.0,70,0.00,,,0.00,WUHU216HW,2013-02-21 22:36:00,
2013-02-21 16:00:00,25.2,16.7,21.13,ENE,68,2.0,2.0,70,0.00,,,0.00,WUHU216HW,2013-02-21 23:00:00,
2013-02-21 16:05:00,25.2,16.7,21.13,NNW,338,0.4,2.0,70,0.00,,,0.00,WUHU216HW,2013-02-21 23:05:00,
2013-02-21 16:10:00,25.2,16.7,21.13,NNW,338,0.4,2.0,70,0.00,,,0.00,WUHU216HW,2013-02-21 23:10:00,
2013-02-21 16:30:00,25.2,16.7,21.13,NNE,23,0.2,0.2,70,0.00,,,0.00,WUHU216HW,2013-02-21 23:30:00,
2013-02-21 16:35:00,25.2,17.1,21.13,NNW,338,1.8,1.8,71,0.00,,,0.00,WUHU216HW,2013-02-21 23:35:00,
2013-02-21 16:40:00,25.2,17.1,21.13,NNW,338,1.8,1.8,71,0.00,,,0.00,WUHU216HW,2013-02-21 23:40:00,
2013-02-21 17:00:00,23.4,14.8,21.14,WNW,293,0.2,0.2,69,0.00,,,0.00,WUHU216HW,2013-02-22 00:00:00,
2013-02-21 17:05:00,23.4,14.8,21.14,WNW,293,0.0,0.2,69,0.00,,,0.00,WUHU216HW,2013-02-22 00:05:00,
2013-02-21 17:10:00,23.4,14.8,21.14,WNW,293,0.0,0.2,69,0.00,,,0.00,WUHU216HW,2013-02-22 00:10:00,
2013-02-21 17:30:00,23.2,14.6,21.15,East,90,0.0,0.0,69,0.00,,,0.00,WUHU216HW,2013-02-22 00:30:00,
2013-02-21 17:35:00,23.2,14.6,21.15,East,90,0.0,0.0,69,0.00,,,0.00,WUHU216HW,2013-02-22 00:35:00,
2013-02-21 17:40:00,23.2,14.6,21.15,East,90,0.0,0.0,69,0.00,,,0.00,WUHU216HW,2013-02-22 00:40:00,
2013-02-21 18:00:00,22.3,13.3,21.16,ENE,68,0.4,0.4,68,0.00,,,0.00,WUHU216HW,2013-02-22 01:00:00,
2013-02-21 18:05:00,22.3,13.3,21.16,East,90,2.5,2.5,68,0.00,,,0.00,WUHU216HW,2013-02-22 01:05:00,
2013-02-21 18:10:00,22.3,13.3,21.16,East,90,2.5,2.5,68,0.00,,,0.00,WUHU216HW,2013-02-22 01:10:00,
2013-02-21 18:30:00,21.2,12.2,21.18,West,270,0.4,0.4,68,0.00,,,0.00,WUHU216HW,2013-02-22 01:30:00,
2013-02-21 18:35:00,21.2,12.2,21.18,West,270,0.0,0.4,68,0.00,,,0.00,WUHU216HW,2013-02-22 01:35:00,
2013-02-21 18:40:00,21.2,12.2,21.18,West,270,0.0,0.0,68,0.00,,,0.00,WUHU216HW,2013-02-22 01:40:00,
2013-02-21 19:00:00,21.1,11.8,21.19,East,90,0.0,0.0,67,0.00,,,0.00,WUHU216HW,2013-02-22 02:00:00,
2013-02-21 19:05:00,21.1,11.8,21.19,East,90,0.0,0.0,67,0.00,,,0.00,WUHU216HW,2013-02-22 02:05:00,
2013-02-21 19:10:00,21.1,11.8,21.19,East,90,0.0,0.0,67,0.00,,,0.00,WUHU216HW,2013-02-22 02:10:00,
2013-02-21 19:30:00,20.5,11.3,21.20,West,270,0.0,0.0,67,0.00,,,0.00,WUHU216HW,2013-02-22 02:30:00,
2013-02-21 19:35:00,20.5,11.3,21.20,West,270,0.0,0.0,67,0.00,,,0.00,WUHU216HW,2013-02-22 02:35:00,
2013-02-21 19:40:00,20.5,11.3,21.20,West,270,0.0,0.0,67,0.00,,,0.00,WUHU216HW,2013-02-22 02:40:00,
2013-02-21 20:00:00,19.4,10.2,21.20,West,270,0.0,0.0,67,0.00,,,0.00,WUHU216HW,2013-02-22 03:00:00,
2013-02-21 20:05:00,19.3,10.0,21.20,West,270,0.0,0.0,67,0.00,,,0.00,WUHU216HW,2013-02-22 03:05:00,
2013-02-21 20:10:00,19.3,10.0,21.20,West,270,0.0,0.0,67,0.00,,,0.00,WUHU216HW,2013-02-22 03:10:00,
2013-02-21 20:30:00,19.1,10.2,21.21,East,90,0.0,0.0,68,0.00,,,0.00,WUHU216HW,2013-02-22 03:30:00,
2013-02-21 20:35:00,19.1,10.2,21.21,East,90,0.0,0.0,68,0.00,,,0.00,WUHU216HW,2013-02-22 03:35:00,
2013-02-21 20:40:00,19.1,10.2,21.21,East,90,0.0,0.0,68,0.00,,,0.00,WUHU216HW,2013-02-22 03:40:00,
2013-02-21 21:00:00,19.1,9.8,21.22,West,270,0.0,0.0,67,0.00,,,0.00,WUHU216HW,2013-02-22 04:00:00,
2013-02-21 21:05:00,19.1,9.8,21.22,West,270,0.0,0.0,67,0.00,,,0.00,WUHU216HW,2013-02-22 04:05:00,
2013-02-21 21:10:00,19.1,9.8,21.22,West,270,0.0,0.0,67,0.00,,,0.00,WUHU216HW,2013-02-22 04:10:00,
2013-02-21 21:30:00,18.5,9.6,21.22,East,90,0.0,0.0,68,0.00,,,0.00,WUHU216HW,2013-02-22 04:30:00,
2013-02-21 21:35:00,18.5,9.6,21.22,East,90,0.2,0.2,68,0.00,,,0.00,WUHU216HW,2013-02-22 04:35:00,
2013-02-21 21:40:00,18.5,9.6,21.22,East,90,0.2,0.2,68,0.00,,,0.00,WUHU216HW,2013-02-22 04:40:00,
2013-02-21 22:00:00,18.7,9.8,21.22,East,90,0.0,0.0,68,0.00,,,0.00,WUHU216HW,2013-02-22 05:00:00,
2013-02-21 22:05:00,18.7,9.8,21.22,ENE,68,0.0,0.0,68,0.00,,,0.00,WUHU216HW,2013-02-22 05:05:00,
2013-02-21 22:30:00,18.4,9.2,21.22,West,270,0.4,0.4,67,0.00,,,0.00,WUHU216HW,2013-02-22 05:30:00,
2013-02-21 22:35:00,18.4,9.2,21.22,West,270,0.4,0.4,67,0.00,,,0.00,WUHU216HW,2013-02-22 05:35:00,
2013-02-21 22:40:00,18.4,9.2,21.22,West,270,0.4,0.4,67,0.00,,,0.00,WUHU216HW,2013-02-22 05:40:00,
2013-02-21 23:00:00,16.7,7.9,21.23,NE,45,0.2,0.2,68,0.00,,,0.00,WUHU216HW,2013-02-22 06:00:00,
2013-02-21 23:05:00,16.7,7.9,21.23,NE,45,0.0,0.2,68,0.00,,,0.00,WUHU216HW,2013-02-22 06:05:00,
2013-02-21 23:10:00,16.7,7.9,21.23,NE,45,0.0,0.0,68,0.00,,,0.00,WUHU216HW,2013-02-22 06:10:00,
2013-02-21 23:30:00,15.8,7.4,21.24,ENE,68,0.0,0.0,69,0.00,,,0.00,WUHU216HW,2013-02-22 06:30:00,
2013-02-21 23:35:00,15.8,7.4,21.24,ENE,68,0.0,0.0,69,0.00,,,0.00,WUHU216HW,2013-02-22 06:35:00,
2013-02-21 23:40:00,15.8,7.4,21.24,ENE,68,0.0,0.0,69,0.00,,,0.00,WUHU216HW,2013-02-22 06:40:00,